sensor_id;sensor_type;location;lat;lon;timestamp;temperature;humidity
56298;DHT22;42208;6.376;-10.782;2023-11-19T00:01:16;27.30;99.90
56298;DHT22;42208;6.376;-10.782;2023-11-19T00:03:45;27.30;99.90
56298;DHT22;42208;6.376;-10.782;2023-11-19T00:06:16;27.40;99.90
56298;DHT22;42208;6.376;-10.782;2023-11-19T00:08:45;27.30;99.90
56298;DHT22;42208;6.376;-10.782;2023-11-19T00:11:13;27.30;99.90
56298;DHT22;42208;6.376;-10.782;2023-11-19T00:13:42;27.40;99.90
56298;DHT22;42208;6.376;-10.782;2023-11-19T00:16:11;27.30;99.90
56298;DHT22;42208;6.376;-10.782;2023-11-19T00:18:39;27.40;99.90
56298;DHT22;42208;6.376;-10.782;2023-11-19T00:21:08;27.40;99.90
56298;DHT22;42208;6.376;-10.782;2023-11-19T00:23:37;27.40;99.90
56298;DHT22;42208;6.376;-10.782;2023-11-19T00:26:06;27.40;99.90
56298;DHT22;42208;6.376;-10.782;2023-11-19T00:28:37;27.30;99.90
56298;DHT22;42208;6.376;-10.782;2023-11-19T00:31:06;27.40;99.90
56298;DHT22;42208;6.376;-10.782;2023-11-19T00:33:34;27.40;99.90
56298;DHT22;42208;6.376;-10.782;2023-11-19T00:36:03;27.40;99.90
56298;DHT22;42208;6.376;-10.782;2023-11-19T00:38:32;27.40;99.90
56298;DHT22;42208;6.376;-10.782;2023-11-19T00:41:00;27.40;99.90
56298;DHT22;42208;6.376;-10.782;2023-11-19T00:43:29;27.40;99.90
56298;DHT22;42208;6.376;-10.782;2023-11-19T00:45:57;27.40;99.90
56298;DHT22;42208;6.376;-10.782;2023-11-19T00:48:26;27.40;99.90
56298;DHT22;42208;6.376;-10.782;2023-11-19T00:50:55;27.40;99.90
56298;DHT22;42208;6.376;-10.782;2023-11-19T00:53:23;27.40;99.90
56298;DHT22;42208;6.376;-10.782;2023-11-19T00:55:52;27.40;99.90
56298;DHT22;42208;6.376;-10.782;2023-11-19T00:58:21;27.40;99.90
56298;DHT22;42208;6.376;-10.782;2023-11-19T01:00:50;27.30;99.90
56298;DHT22;42208;6.376;-10.782;2023-11-19T01:03:18;27.40;99.90
56298;DHT22;42208;6.376;-10.782;2023-11-19T01:05:47;27.30;99.90
56298;DHT22;42208;6.376;-10.782;2023-11-19T01:08:17;27.30;99.90
56298;DHT22;42208;6.376;-10.782;2023-11-19T01:10:45;27.30;99.90
56298;DHT22;42208;6.376;-10.782;2023-11-19T01:13:14;27.20;99.90
56298;DHT22;42208;6.376;-10.782;2023-11-19T01:15:43;27.20;99.90
56298;DHT22;42208;6.376;-10.782;2023-11-19T01:18:11;27.20;99.90
56298;DHT22;42208;6.376;-10.782;2023-11-19T01:20:40;27.20;99.90
56298;DHT22;42208;6.376;-10.782;2023-11-19T01:23:08;27.20;99.90
56298;DHT22;42208;6.376;-10.782;2023-11-19T01:25:37;27.10;99.90
56298;DHT22;42208;6.376;-10.782;2023-11-19T01:28:05;27.10;99.90
56298;DHT22;42208;6.376;-10.782;2023-11-19T01:30:34;27.10;99.90
56298;DHT22;42208;6.376;-10.782;2023-11-19T01:33:02;27.00;99.90
56298;DHT22;42208;6.376;-10.782;2023-11-19T01:35:31;27.00;99.90
56298;DHT22;42208;6.376;-10.782;2023-11-19T01:38:00;27.00;99.90
56298;DHT22;42208;6.376;-10.782;2023-11-19T01:40:28;27.00;99.90
56298;DHT22;42208;6.376;-10.782;2023-11-19T01:42:57;27.00;99.90
56298;DHT22;42208;6.376;-10.782;2023-11-19T01:45:29;26.90;99.90
56298;DHT22;42208;6.376;-10.782;2023-11-19T01:48:00;26.90;99.90
56298;DHT22;42208;6.376;-10.782;2023-11-19T01:50:30;26.90;99.90
56298;DHT22;42208;6.376;-10.782;2023-11-19T01:53:00;26.80;99.90
56298;DHT22;42208;6.376;-10.782;2023-11-19T01:55:28;26.80;99.90
56298;DHT22;42208;6.376;-10.782;2023-11-19T01:58:00;26.80;99.90
56298;DHT22;42208;6.376;-10.782;2023-11-19T02:00:31;26.80;99.90
56298;DHT22;42208;6.376;-10.782;2023-11-19T02:03:00;26.70;99.90
56298;DHT22;42208;6.376;-10.782;2023-11-19T02:05:29;26.70;99.90
56298;DHT22;42208;6.376;-10.782;2023-11-19T02:07:57;26.70;99.90
56298;DHT22;42208;6.376;-10.782;2023-11-19T02:10:26;26.80;99.90
56298;DHT22;42208;6.376;-10.782;2023-11-19T02:12:54;26.80;99.90
56298;DHT22;42208;6.376;-10.782;2023-11-19T02:15:33;26.80;99.90
56298;DHT22;42208;6.376;-10.782;2023-11-19T02:18:35;26.70;99.90
56298;DHT22;42208;6.376;-10.782;2023-11-19T02:21:03;26.70;99.90
56298;DHT22;42208;6.376;-10.782;2023-11-19T02:23:32;26.70;99.90
56298;DHT22;42208;6.376;-10.782;2023-11-19T02:28:51;26.70;99.90
56298;DHT22;42208;6.376;-10.782;2023-11-19T02:31:19;26.70;99.90
56298;DHT22;42208;6.376;-10.782;2023-11-19T02:33:48;26.70;99.90
56298;DHT22;42208;6.376;-10.782;2023-11-19T02:36:16;26.70;99.90
56298;DHT22;42208;6.376;-10.782;2023-11-19T02:38:45;26.70;99.90
56298;DHT22;42208;6.376;-10.782;2023-11-19T02:41:14;26.70;99.90
56298;DHT22;42208;6.376;-10.782;2023-11-19T02:43:43;26.60;99.90
56298;DHT22;42208;6.376;-10.782;2023-11-19T02:46:12;26.50;99.90
56298;DHT22;42208;6.376;-10.782;2023-11-19T02:48:43;26.40;99.90
56298;DHT22;42208;6.376;-10.782;2023-11-19T02:51:12;26.30;99.90
56298;DHT22;42208;6.376;-10.782;2023-11-19T02:53:40;26.20;99.90
56298;DHT22;42208;6.376;-10.782;2023-11-19T02:56:09;26.10;99.90
56298;DHT22;42208;6.376;-10.782;2023-11-19T02:58:38;26.10;99.90
56298;DHT22;42208;6.376;-10.782;2023-11-19T03:01:06;26.10;99.90
56298;DHT22;42208;6.376;-10.782;2023-11-19T03:03:35;25.90;99.90
56298;DHT22;42208;6.376;-10.782;2023-11-19T03:06:05;25.90;99.90
56298;DHT22;42208;6.376;-10.782;2023-11-19T03:08:35;25.90;99.90
56298;DHT22;42208;6.376;-10.782;2023-11-19T03:11:04;25.80;99.90
56298;DHT22;42208;6.376;-10.782;2023-11-19T03:13:33;25.80;99.90
56298;DHT22;42208;6.376;-10.782;2023-11-19T03:16:02;25.70;99.90
56298;DHT22;42208;6.376;-10.782;2023-11-19T03:18:33;25.80;99.90
56298;DHT22;42208;6.376;-10.782;2023-11-19T03:21:02;25.70;99.90
56298;DHT22;42208;6.376;-10.782;2023-11-19T03:23:30;25.60;99.90
56298;DHT22;42208;6.376;-10.782;2023-11-19T03:25:59;25.50;99.90
56298;DHT22;42208;6.376;-10.782;2023-11-19T03:28:28;25.50;99.90
56298;DHT22;42208;6.376;-10.782;2023-11-19T03:30:56;25.40;99.90
56298;DHT22;42208;6.376;-10.782;2023-11-19T03:33:25;25.40;99.90
56298;DHT22;42208;6.376;-10.782;2023-11-19T03:35:54;25.40;99.90
56298;DHT22;42208;6.376;-10.782;2023-11-19T03:38:24;25.50;99.90
56298;DHT22;42208;6.376;-10.782;2023-11-19T03:40:53;25.40;99.90
56298;DHT22;42208;6.376;-10.782;2023-11-19T03:43:21;25.40;99.90
56298;DHT22;42208;6.376;-10.782;2023-11-19T03:45:50;25.50;99.90
56298;DHT22;42208;6.376;-10.782;2023-11-19T03:48:19;25.50;99.90
56298;DHT22;42208;6.376;-10.782;2023-11-19T03:50:47;25.50;99.90
56298;DHT22;42208;6.376;-10.782;2023-11-19T03:53:15;25.50;99.90
56298;DHT22;42208;6.376;-10.782;2023-11-19T03:55:44;25.50;99.90
56298;DHT22;42208;6.376;-10.782;2023-11-19T03:58:12;25.40;99.90
56298;DHT22;42208;6.376;-10.782;2023-11-19T04:00:40;25.40;99.90
56298;DHT22;42208;6.376;-10.782;2023-11-19T04:03:09;25.40;99.90
56298;DHT22;42208;6.376;-10.782;2023-11-19T04:05:37;25.60;99.90
56298;DHT22;42208;6.376;-10.782;2023-11-19T04:08:06;25.50;99.90
56298;DHT22;42208;6.376;-10.782;2023-11-19T04:10:34;25.50;99.90
56298;DHT22;42208;6.376;-10.782;2023-11-19T04:13:02;25.60;99.90
56298;DHT22;42208;6.376;-10.782;2023-11-19T04:15:31;25.50;99.90
56298;DHT22;42208;6.376;-10.782;2023-11-19T04:17:59;25.40;99.90
56298;DHT22;42208;6.376;-10.782;2023-11-19T04:20:28;25.50;99.90
56298;DHT22;42208;6.376;-10.782;2023-11-19T04:22:56;25.50;99.90
56298;DHT22;42208;6.376;-10.782;2023-11-19T04:25:25;25.40;99.90
56298;DHT22;42208;6.376;-10.782;2023-11-19T04:27:54;25.40;99.90
56298;DHT22;42208;6.376;-10.782;2023-11-19T04:30:22;25.50;99.90
56298;DHT22;42208;6.376;-10.782;2023-11-19T04:32:51;25.50;99.90
56298;DHT22;42208;6.376;-10.782;2023-11-19T04:35:19;25.50;99.90
56298;DHT22;42208;6.376;-10.782;2023-11-19T04:37:47;25.50;99.90
56298;DHT22;42208;6.376;-10.782;2023-11-19T04:40:16;25.50;99.90
56298;DHT22;42208;6.376;-10.782;2023-11-19T04:42:45;25.60;99.90
56298;DHT22;42208;6.376;-10.782;2023-11-19T04:45:13;25.60;99.90
56298;DHT22;42208;6.376;-10.782;2023-11-19T04:47:42;25.60;99.90
56298;DHT22;42208;6.376;-10.782;2023-11-19T04:50:11;25.60;99.90
56298;DHT22;42208;6.376;-10.782;2023-11-19T04:52:40;25.60;99.90
56298;DHT22;42208;6.376;-10.782;2023-11-19T04:55:08;25.60;99.90
56298;DHT22;42208;6.376;-10.782;2023-11-19T04:57:37;25.60;99.90
56298;DHT22;42208;6.376;-10.782;2023-11-19T05:00:05;25.60;99.90
56298;DHT22;42208;6.376;-10.782;2023-11-19T05:02:44;25.60;99.90
56298;DHT22;42208;6.376;-10.782;2023-11-19T05:05:12;25.60;99.90
56298;DHT22;42208;6.376;-10.782;2023-11-19T05:07:41;25.60;99.90
56298;DHT22;42208;6.376;-10.782;2023-11-19T05:10:10;25.50;99.90
56298;DHT22;42208;6.376;-10.782;2023-11-19T05:12:38;25.50;99.90
56298;DHT22;42208;6.376;-10.782;2023-11-19T05:15:07;25.50;99.90
56298;DHT22;42208;6.376;-10.782;2023-11-19T05:17:35;25.50;99.90
56298;DHT22;42208;6.376;-10.782;2023-11-19T05:20:04;25.50;99.90
56298;DHT22;42208;6.376;-10.782;2023-11-19T05:22:33;25.60;99.90
56298;DHT22;42208;6.376;-10.782;2023-11-19T05:25:01;25.60;99.90
56298;DHT22;42208;6.376;-10.782;2023-11-19T05:27:30;25.50;99.90
56298;DHT22;42208;6.376;-10.782;2023-11-19T05:29:58;25.50;99.90
56298;DHT22;42208;6.376;-10.782;2023-11-19T05:32:27;25.50;99.90
56298;DHT22;42208;6.376;-10.782;2023-11-19T05:34:55;25.50;99.90
56298;DHT22;42208;6.376;-10.782;2023-11-19T05:37:24;25.50;99.90
56298;DHT22;42208;6.376;-10.782;2023-11-19T05:39:52;25.50;99.90
56298;DHT22;42208;6.376;-10.782;2023-11-19T05:42:21;25.50;99.90
56298;DHT22;42208;6.376;-10.782;2023-11-19T05:44:49;25.40;99.90
56298;DHT22;42208;6.376;-10.782;2023-11-19T05:47:18;25.40;99.90
56298;DHT22;42208;6.376;-10.782;2023-11-19T05:49:46;25.40;99.90
56298;DHT22;42208;6.376;-10.782;2023-11-19T05:52:14;25.40;99.90
56298;DHT22;42208;6.376;-10.782;2023-11-19T05:54:43;25.30;99.90
56298;DHT22;42208;6.376;-10.782;2023-11-19T05:57:11;25.30;99.90
56298;DHT22;42208;6.376;-10.782;2023-11-19T05:59:40;25.30;99.90
56298;DHT22;42208;6.376;-10.782;2023-11-19T06:02:08;25.30;99.90
56298;DHT22;42208;6.376;-10.782;2023-11-19T06:04:37;25.30;99.90
56298;DHT22;42208;6.376;-10.782;2023-11-19T06:07:05;25.30;99.90
56298;DHT22;42208;6.376;-10.782;2023-11-19T06:09:34;25.20;99.90
56298;DHT22;42208;6.376;-10.782;2023-11-19T06:12:02;25.20;99.90
56298;DHT22;42208;6.376;-10.782;2023-11-19T06:14:31;25.20;99.90
56298;DHT22;42208;6.376;-10.782;2023-11-19T06:16:59;25.30;99.90
56298;DHT22;42208;6.376;-10.782;2023-11-19T06:19:28;25.30;99.90
56298;DHT22;42208;6.376;-10.782;2023-11-19T06:21:57;25.30;99.90
56298;DHT22;42208;6.376;-10.782;2023-11-19T06:24:26;25.40;99.90
56298;DHT22;42208;6.376;-10.782;2023-11-19T06:26:54;25.40;99.90
56298;DHT22;42208;6.376;-10.782;2023-11-19T06:29:23;25.40;99.90
56298;DHT22;42208;6.376;-10.782;2023-11-19T06:31:51;25.40;99.90
56298;DHT22;42208;6.376;-10.782;2023-11-19T06:34:19;25.40;99.90
56298;DHT22;42208;6.376;-10.782;2023-11-19T06:36:48;25.50;99.90
56298;DHT22;42208;6.376;-10.782;2023-11-19T06:39:16;25.50;99.90
56298;DHT22;42208;6.376;-10.782;2023-11-19T06:41:46;25.40;99.90
56298;DHT22;42208;6.376;-10.782;2023-11-19T06:44:14;25.40;99.90
56298;DHT22;42208;6.376;-10.782;2023-11-19T06:46:42;25.40;99.90
56298;DHT22;42208;6.376;-10.782;2023-11-19T06:49:11;25.40;99.90
56298;DHT22;42208;6.376;-10.782;2023-11-19T06:51:43;25.30;99.90
56298;DHT22;42208;6.376;-10.782;2023-11-19T06:54:11;25.30;99.90
56298;DHT22;42208;6.376;-10.782;2023-11-19T06:56:40;25.20;99.90
56298;DHT22;42208;6.376;-10.782;2023-11-19T06:59:09;25.30;99.90
56298;DHT22;42208;6.376;-10.782;2023-11-19T07:01:37;25.30;99.90
56298;DHT22;42208;6.376;-10.782;2023-11-19T07:04:06;25.30;99.90
56298;DHT22;42208;6.376;-10.782;2023-11-19T07:06:36;25.30;99.90
56298;DHT22;42208;6.376;-10.782;2023-11-19T07:09:04;25.30;99.90
56298;DHT22;42208;6.376;-10.782;2023-11-19T07:11:34;25.40;99.90
56298;DHT22;42208;6.376;-10.782;2023-11-19T07:14:03;25.40;99.90
56298;DHT22;42208;6.376;-10.782;2023-11-19T07:16:35;25.40;99.90
56298;DHT22;42208;6.376;-10.782;2023-11-19T07:19:04;25.40;99.90
56298;DHT22;42208;6.376;-10.782;2023-11-19T07:21:33;25.50;99.90
56298;DHT22;42208;6.376;-10.782;2023-11-19T07:24:02;25.50;99.90
56298;DHT22;42208;6.376;-10.782;2023-11-19T07:26:32;25.50;99.90
56298;DHT22;42208;6.376;-10.782;2023-11-19T07:29:01;25.40;99.90
56298;DHT22;42208;6.376;-10.782;2023-11-19T07:31:29;25.40;99.90
56298;DHT22;42208;6.376;-10.782;2023-11-19T07:33:57;25.40;99.90
56298;DHT22;42208;6.376;-10.782;2023-11-19T07:36:26;25.40;99.90
56298;DHT22;42208;6.376;-10.782;2023-11-19T07:38:54;25.40;99.90
56298;DHT22;42208;6.376;-10.782;2023-11-19T07:41:23;25.40;99.90
56298;DHT22;42208;6.376;-10.782;2023-11-19T07:43:51;25.50;99.90
56298;DHT22;42208;6.376;-10.782;2023-11-19T07:46:20;25.50;99.90
56298;DHT22;42208;6.376;-10.782;2023-11-19T07:48:49;25.50;99.90
56298;DHT22;42208;6.376;-10.782;2023-11-19T07:51:17;25.50;99.90
56298;DHT22;42208;6.376;-10.782;2023-11-19T07:53:46;25.50;99.90
56298;DHT22;42208;6.376;-10.782;2023-11-19T07:56:14;25.50;99.90
56298;DHT22;42208;6.376;-10.782;2023-11-19T07:58:42;25.50;99.90
56298;DHT22;42208;6.376;-10.782;2023-11-19T08:01:11;25.60;99.90
56298;DHT22;42208;6.376;-10.782;2023-11-19T08:03:39;25.60;99.90
56298;DHT22;42208;6.376;-10.782;2023-11-19T08:06:24;25.60;99.90
56298;DHT22;42208;6.376;-10.782;2023-11-19T08:08:52;25.60;99.90
56298;DHT22;42208;6.376;-10.782;2023-11-19T08:11:21;25.60;99.90
56298;DHT22;42208;6.376;-10.782;2023-11-19T08:13:49;25.60;99.90
56298;DHT22;42208;6.376;-10.782;2023-11-19T08:16:18;25.70;99.90
56298;DHT22;42208;6.376;-10.782;2023-11-19T08:18:46;25.60;99.90
56298;DHT22;42208;6.376;-10.782;2023-11-19T08:21:15;25.70;99.90
56298;DHT22;42208;6.376;-10.782;2023-11-19T08:23:43;25.70;99.90
56298;DHT22;42208;6.376;-10.782;2023-11-19T08:26:12;25.70;99.90
56298;DHT22;42208;6.376;-10.782;2023-11-19T08:28:40;25.70;99.90
56298;DHT22;42208;6.376;-10.782;2023-11-19T08:31:09;25.70;99.90
56298;DHT22;42208;6.376;-10.782;2023-11-19T08:33:37;25.70;99.90
56298;DHT22;42208;6.376;-10.782;2023-11-19T08:36:06;25.70;99.90
56298;DHT22;42208;6.376;-10.782;2023-11-19T08:38:35;25.80;99.90
56298;DHT22;42208;6.376;-10.782;2023-11-19T08:41:03;25.80;99.90
56298;DHT22;42208;6.376;-10.782;2023-11-19T08:43:32;25.80;99.90
56298;DHT22;42208;6.376;-10.782;2023-11-19T08:46:00;25.90;99.90
56298;DHT22;42208;6.376;-10.782;2023-11-19T08:48:29;25.80;99.90
56298;DHT22;42208;6.376;-10.782;2023-11-19T08:50:57;25.90;99.90
56298;DHT22;42208;6.376;-10.782;2023-11-19T08:53:26;25.90;99.90
56298;DHT22;42208;6.376;-10.782;2023-11-19T08:55:54;25.90;99.90
56298;DHT22;42208;6.376;-10.782;2023-11-19T08:58:23;25.90;99.90
56298;DHT22;42208;6.376;-10.782;2023-11-19T09:00:51;25.90;99.90
56298;DHT22;42208;6.376;-10.782;2023-11-19T09:03:20;26.00;99.90
56298;DHT22;42208;6.376;-10.782;2023-11-19T09:05:48;26.00;99.90
56298;DHT22;42208;6.376;-10.782;2023-11-19T09:08:17;26.10;99.90
56298;DHT22;42208;6.376;-10.782;2023-11-19T09:10:45;26.10;99.90
56298;DHT22;42208;6.376;-10.782;2023-11-19T09:13:14;26.10;99.90
56298;DHT22;42208;6.376;-10.782;2023-11-19T09:15:42;26.20;99.90
56298;DHT22;42208;6.376;-10.782;2023-11-19T09:18:11;26.20;99.90
56298;DHT22;42208;6.376;-10.782;2023-11-19T09:20:39;26.30;99.90
56298;DHT22;42208;6.376;-10.782;2023-11-19T09:23:08;26.30;99.90
56298;DHT22;42208;6.376;-10.782;2023-11-19T09:25:37;26.30;99.90
56298;DHT22;42208;6.376;-10.782;2023-11-19T09:28:08;26.40;99.90
56298;DHT22;42208;6.376;-10.782;2023-11-19T09:30:37;26.40;99.90
56298;DHT22;42208;6.376;-10.782;2023-11-19T09:33:05;26.50;99.90
56298;DHT22;42208;6.376;-10.782;2023-11-19T09:35:37;26.50;99.90
56298;DHT22;42208;6.376;-10.782;2023-11-19T09:38:13;26.50;99.90
56298;DHT22;42208;6.376;-10.782;2023-11-19T09:40:46;26.60;99.90
56298;DHT22;42208;6.376;-10.782;2023-11-19T09:43:17;26.70;99.90
56298;DHT22;42208;6.376;-10.782;2023-11-19T09:45:50;26.70;99.90
56298;DHT22;42208;6.376;-10.782;2023-11-19T09:48:25;26.70;99.90
56298;DHT22;42208;6.376;-10.782;2023-11-19T09:50:54;26.80;99.90
56298;DHT22;42208;6.376;-10.782;2023-11-19T09:53:23;26.80;99.90
56298;DHT22;42208;6.376;-10.782;2023-11-19T09:55:51;26.90;99.90
56298;DHT22;42208;6.376;-10.782;2023-11-19T09:58:21;26.90;99.90
56298;DHT22;42208;6.376;-10.782;2023-11-19T10:00:50;27.00;99.90
56298;DHT22;42208;6.376;-10.782;2023-11-19T10:03:39;27.10;99.90
56298;DHT22;42208;6.376;-10.782;2023-11-19T10:06:09;27.10;99.90
56298;DHT22;42208;6.376;-10.782;2023-11-19T10:08:39;27.20;99.90
56298;DHT22;42208;6.376;-10.782;2023-11-19T10:11:08;27.30;99.90
56298;DHT22;42208;6.376;-10.782;2023-11-19T10:13:37;27.30;99.90
56298;DHT22;42208;6.376;-10.782;2023-11-19T10:16:11;27.40;99.90
56298;DHT22;42208;6.376;-10.782;2023-11-19T10:18:49;27.40;99.90
56298;DHT22;42208;6.376;-10.782;2023-11-19T10:21:19;27.60;99.90
56298;DHT22;42208;6.376;-10.782;2023-11-19T10:23:55;27.60;99.90
56298;DHT22;42208;6.376;-10.782;2023-11-19T10:26:24;27.80;99.90
56298;DHT22;42208;6.376;-10.782;2023-11-19T10:28:55;27.80;99.90
56298;DHT22;42208;6.376;-10.782;2023-11-19T10:31:24;27.90;99.90
56298;DHT22;42208;6.376;-10.782;2023-11-19T10:33:53;27.90;99.90
56298;DHT22;42208;6.376;-10.782;2023-11-19T10:36:22;28.00;99.90
56298;DHT22;42208;6.376;-10.782;2023-11-19T10:38:55;28.10;99.90
56298;DHT22;42208;6.376;-10.782;2023-11-19T10:41:30;28.10;99.90
56298;DHT22;42208;6.376;-10.782;2023-11-19T10:44:00;28.20;99.90
56298;DHT22;42208;6.376;-10.782;2023-11-19T10:46:41;28.20;99.90
56298;DHT22;42208;6.376;-10.782;2023-11-19T10:49:10;28.30;99.90
56298;DHT22;42208;6.376;-10.782;2023-11-19T10:51:45;28.40;99.90
56298;DHT22;42208;6.376;-10.782;2023-11-19T10:54:19;28.50;99.90
56298;DHT22;42208;6.376;-10.782;2023-11-19T10:56:54;28.60;99.90
56298;DHT22;42208;6.376;-10.782;2023-11-19T10:59:24;28.60;99.90
56298;DHT22;42208;6.376;-10.782;2023-11-19T11:02:03;28.70;99.90
56298;DHT22;42208;6.376;-10.782;2023-11-19T11:04:34;28.80;99.90
56298;DHT22;42208;6.376;-10.782;2023-11-19T11:07:08;28.80;99.90
56298;DHT22;42208;6.376;-10.782;2023-11-19T11:09:37;28.80;99.90
56298;DHT22;42208;6.376;-10.782;2023-11-19T11:12:06;28.90;99.90
56298;DHT22;42208;6.376;-10.782;2023-11-19T11:14:37;28.90;99.90
56298;DHT22;42208;6.376;-10.782;2023-11-19T11:17:11;28.90;99.90
56298;DHT22;42208;6.376;-10.782;2023-11-19T11:19:42;28.90;99.90
56298;DHT22;42208;6.376;-10.782;2023-11-19T11:22:11;28.90;99.90
56298;DHT22;42208;6.376;-10.782;2023-11-19T11:25:08;29.00;99.90
56298;DHT22;42208;6.376;-10.782;2023-11-19T11:27:57;29.00;99.90
56298;DHT22;42208;6.376;-10.782;2023-11-19T11:36:19;29.10;99.90
56298;DHT22;42208;6.376;-10.782;2023-11-19T11:38:49;29.30;99.90
56298;DHT22;42208;6.376;-10.782;2023-11-19T11:41:22;29.30;99.90
56298;DHT22;42208;6.376;-10.782;2023-11-19T11:43:55;29.30;99.90
56298;DHT22;42208;6.376;-10.782;2023-11-19T11:49:08;29.30;99.90
56298;DHT22;42208;6.376;-10.782;2023-11-19T11:57:08;29.40;99.90
56298;DHT22;42208;6.376;-10.782;2023-11-19T11:59:45;29.50;99.90
56298;DHT22;42208;6.376;-10.782;2023-11-19T12:02:22;29.50;99.90
56298;DHT22;42208;6.376;-10.782;2023-11-19T12:04:52;29.60;99.90
56298;DHT22;42208;6.376;-10.782;2023-11-19T12:07:22;29.60;99.90
56298;DHT22;42208;6.376;-10.782;2023-11-19T12:10:07;29.60;99.90
56298;DHT22;42208;6.376;-10.782;2023-11-19T12:12:36;29.60;99.90
56298;DHT22;42208;6.376;-10.782;2023-11-19T12:15:09;29.70;99.90
56298;DHT22;42208;6.376;-10.782;2023-11-19T12:17:46;29.90;99.90
56298;DHT22;42208;6.376;-10.782;2023-11-19T12:20:19;29.90;99.90
56298;DHT22;42208;6.376;-10.782;2023-11-19T12:22:51;29.90;99.90
56298;DHT22;42208;6.376;-10.782;2023-11-19T12:25:20;29.80;99.90
56298;DHT22;42208;6.376;-10.782;2023-11-19T12:27:50;29.80;99.90
56298;DHT22;42208;6.376;-10.782;2023-11-19T12:30:26;29.70;99.90
56298;DHT22;42208;6.376;-10.782;2023-11-19T12:32:54;29.70;99.90
56298;DHT22;42208;6.376;-10.782;2023-11-19T12:35:23;29.60;99.90
56298;DHT22;42208;6.376;-10.782;2023-11-19T12:37:52;29.60;99.90
56298;DHT22;42208;6.376;-10.782;2023-11-19T12:40:25;29.60;99.90
56298;DHT22;42208;6.376;-10.782;2023-11-19T12:42:54;29.60;99.90
56298;DHT22;42208;6.376;-10.782;2023-11-19T12:45:23;29.60;99.90
56298;DHT22;42208;6.376;-10.782;2023-11-19T12:48:05;29.60;99.90
56298;DHT22;42208;6.376;-10.782;2023-11-19T12:51:06;29.70;99.90
56298;DHT22;42208;6.376;-10.782;2023-11-19T12:53:52;29.70;99.90
56298;DHT22;42208;6.376;-10.782;2023-11-19T12:56:21;29.80;99.90
56298;DHT22;42208;6.376;-10.782;2023-11-19T12:58:50;29.90;99.90
56298;DHT22;42208;6.376;-10.782;2023-11-19T13:01:20;29.80;99.90
56298;DHT22;42208;6.376;-10.782;2023-11-19T13:03:49;29.90;99.90
56298;DHT22;42208;6.376;-10.782;2023-11-19T13:06:17;29.80;99.90
56298;DHT22;42208;6.376;-10.782;2023-11-19T13:08:48;29.70;99.90
56298;DHT22;42208;6.376;-10.782;2023-11-19T13:11:31;29.70;99.90
56298;DHT22;42208;6.376;-10.782;2023-11-19T13:14:01;29.80;99.90
56298;DHT22;42208;6.376;-10.782;2023-11-19T13:16:30;29.80;99.90
56298;DHT22;42208;6.376;-10.782;2023-11-19T13:18:59;29.90;99.90
56298;DHT22;42208;6.376;-10.782;2023-11-19T13:21:28;29.90;99.90
56298;DHT22;42208;6.376;-10.782;2023-11-19T13:23:57;30.00;99.90
56298;DHT22;42208;6.376;-10.782;2023-11-19T13:26:25;30.10;99.90
56298;DHT22;42208;6.376;-10.782;2023-11-19T13:28:54;30.10;99.90
56298;DHT22;42208;6.376;-10.782;2023-11-19T13:31:22;30.20;99.90
56298;DHT22;42208;6.376;-10.782;2023-11-19T13:33:51;30.20;99.90
56298;DHT22;42208;6.376;-10.782;2023-11-19T13:36:19;30.30;99.90
56298;DHT22;42208;6.376;-10.782;2023-11-19T13:38:48;30.20;99.90
56298;DHT22;42208;6.376;-10.782;2023-11-19T13:41:16;30.20;99.90
56298;DHT22;42208;6.376;-10.782;2023-11-19T13:43:45;30.00;99.90
56298;DHT22;42208;6.376;-10.782;2023-11-19T13:46:14;29.90;99.90
56298;DHT22;42208;6.376;-10.782;2023-11-19T13:48:42;29.90;99.90
56298;DHT22;42208;6.376;-10.782;2023-11-19T13:51:11;29.90;99.90
56298;DHT22;42208;6.376;-10.782;2023-11-19T13:53:39;30.00;99.90
56298;DHT22;42208;6.376;-10.782;2023-11-19T13:56:10;30.20;99.90
56298;DHT22;42208;6.376;-10.782;2023-11-19T13:58:39;30.40;99.90
56298;DHT22;42208;6.376;-10.782;2023-11-19T14:01:07;30.40;99.90
56298;DHT22;42208;6.376;-10.782;2023-11-19T14:03:35;30.50;99.90
56298;DHT22;42208;6.376;-10.782;2023-11-19T14:06:04;30.40;99.90
56298;DHT22;42208;6.376;-10.782;2023-11-19T14:08:33;30.30;99.90
56298;DHT22;42208;6.376;-10.782;2023-11-19T14:11:01;30.10;99.90
56298;DHT22;42208;6.376;-10.782;2023-11-19T14:13:30;30.00;99.90
56298;DHT22;42208;6.376;-10.782;2023-11-19T14:15:58;29.80;99.90
56298;DHT22;42208;6.376;-10.782;2023-11-19T14:18:27;29.80;99.90
56298;DHT22;42208;6.376;-10.782;2023-11-19T14:20:56;29.80;99.90
56298;DHT22;42208;6.376;-10.782;2023-11-19T14:23:24;29.90;99.90
56298;DHT22;42208;6.376;-10.782;2023-11-19T14:25:53;30.10;99.90
56298;DHT22;42208;6.376;-10.782;2023-11-19T14:28:21;30.20;99.90
56298;DHT22;42208;6.376;-10.782;2023-11-19T14:30:50;30.40;99.90
56298;DHT22;42208;6.376;-10.782;2023-11-19T14:33:19;30.50;99.90
56298;DHT22;42208;6.376;-10.782;2023-11-19T14:35:47;30.50;99.90
56298;DHT22;42208;6.376;-10.782;2023-11-19T14:38:16;30.60;99.90
56298;DHT22;42208;6.376;-10.782;2023-11-19T14:40:45;30.80;99.90
56298;DHT22;42208;6.376;-10.782;2023-11-19T14:43:13;30.90;99.90
56298;DHT22;42208;6.376;-10.782;2023-11-19T14:45:42;30.90;99.90
56298;DHT22;42208;6.376;-10.782;2023-11-19T14:48:17;31.00;99.90
56298;DHT22;42208;6.376;-10.782;2023-11-19T14:50:46;31.00;99.90
56298;DHT22;42208;6.376;-10.782;2023-11-19T14:53:14;31.10;99.90
56298;DHT22;42208;6.376;-10.782;2023-11-19T14:55:43;31.30;99.90
56298;DHT22;42208;6.376;-10.782;2023-11-19T14:58:11;31.10;99.90
56298;DHT22;42208;6.376;-10.782;2023-11-19T15:00:44;31.10;99.90
56298;DHT22;42208;6.376;-10.782;2023-11-19T15:03:12;31.30;99.90
56298;DHT22;42208;6.376;-10.782;2023-11-19T15:05:41;31.50;99.90
56298;DHT22;42208;6.376;-10.782;2023-11-19T15:08:10;31.60;99.90
56298;DHT22;42208;6.376;-10.782;2023-11-19T15:10:39;31.60;99.90
56298;DHT22;42208;6.376;-10.782;2023-11-19T15:13:07;31.40;99.90
56298;DHT22;42208;6.376;-10.782;2023-11-19T15:15:36;31.40;99.90
56298;DHT22;42208;6.376;-10.782;2023-11-19T15:18:05;31.10;99.90
56298;DHT22;42208;6.376;-10.782;2023-11-19T15:20:33;30.90;99.90
56298;DHT22;42208;6.376;-10.782;2023-11-19T15:23:02;30.70;99.90
56298;DHT22;42208;6.376;-10.782;2023-11-19T15:25:33;30.50;99.90
56298;DHT22;42208;6.376;-10.782;2023-11-19T15:28:01;30.30;99.90
56298;DHT22;42208;6.376;-10.782;2023-11-19T15:30:30;30.20;99.90
56298;DHT22;42208;6.376;-10.782;2023-11-19T15:32:58;30.10;99.90
56298;DHT22;42208;6.376;-10.782;2023-11-19T15:35:27;30.10;99.90
56298;DHT22;42208;6.376;-10.782;2023-11-19T15:37:55;30.00;99.90
56298;DHT22;42208;6.376;-10.782;2023-11-19T15:40:24;30.00;99.90
56298;DHT22;42208;6.376;-10.782;2023-11-19T15:42:52;29.90;99.90
56298;DHT22;42208;6.376;-10.782;2023-11-19T15:45:21;29.70;99.90
56298;DHT22;42208;6.376;-10.782;2023-11-19T15:47:50;29.60;99.90